Terminal Aerodrome Forecast
Issued by NWS North Platte, NE

Home | Current Version | Previous Version | Text Only | Print | Product List | Glossary Off
Versions: 1 2 3 4 5 6 7 8 9 10 11 12 13 14 15 16

000
FTUS43 KLBF 270500
TAFVTN
TAF
KVTN 270520Z 2706/2806 VRB04KT P6SM SKC
     FM271600 17010KT P6SM FEW120
     FM271900 17015G22KT P6SM SCT120
     FM280000 17015KT P6SM SCT120=

USA.gov is the U.S. government's official web portal to all federal, state and local government web resources and services.